Time;durP1;ratioP1;P1;durP2;ratioP2;P2;SDS_P1;SDS_P2;PMS_P1;PMS_P2;Temp;Humidity;BMP_temperature;BMP_pressure;BME280_temperature;BME280_humidity;BME280_pressure;Samples;Min_cycle;Max_cycle;Signal;HPM_P1;HPM_P2
2022/11/09 00:02:27;;;;;;;;;;;;;;;23.94;60.35;97540.01;586686;241;65076;-68
2022/11/09 00:04:55;;;;;;;;;;;;;;;23.96;60.74;97542.43;587714;241;69048;-68
2022/11/09 00:07:22;;;;;;;;;;;;;;;23.95;60.83;97544.28;587747;241;68685;-68
2022/11/09 00:09:50;;;;;;;;;;;;;;;23.95;61.08;97551.54;587802;241;65050;-68
2022/11/09 00:12:17;;;;;;;;;;;;;;;23.95;60.88;97552.34;587720;241;68754;-68
2022/11/09 00:14:45;;;;;;;;;;;;;;;23.93;60.95;97538.41;587749;241;68774;-68
2022/11/09 00:17:12;;;;;;;;;;;;;;;23.93;60.72;97549.95;587745;241;65327;-68
2022/11/09 00:19:40;;;;;;;;;;;;;;;23.92;60.64;97542.95;587742;241;68532;-68
2022/11/09 00:22:07;;;;;;;;;;;;;;;23.92;60.83;97551.01;587778;241;68967;-68
2022/11/09 00:24:35;;;;;;;;;;;;;;;23.91;60.28;97546.73;587723;241;65041;-68
2022/11/09 00:27:02;;;;;;;;;;;;;;;23.91;60.86;97549.41;587711;241;69092;-68
2022/11/09 00:29:30;;;;;;;;;;;;;;;23.92;60.34;97547.52;587752;241;68667;-68
2022/11/09 00:31:57;;;;;;;;;;;;;;;23.90;60.94;97552.39;587739;241;65060;-68
2022/11/09 00:34:25;;;;;;;;;;;;;;;23.91;60.42;97552.09;587778;241;68609;-68
2022/11/09 00:36:51;;;;;;;;;;;;;;;;;;587748;241;68513;-68
2022/11/09 00:39:18;;;;;;;;;;;;;;;23.91;60.26;97546.73;587774;241;65031;-68
2022/11/09 00:41:46;;;;;;;;;;;;;;;23.90;60.56;97538.97;587740;241;66332;-68
2022/11/09 00:44:13;;;;;;;;;;;;;;;23.89;60.48;97538.14;587755;241;68407;-68
2022/11/09 00:46:41;;;;;;;;;;;;;;;23.89;60.60;97535.45;587728;241;62776;-67
2022/11/09 00:49:08;;;;;;;;;;;;;;;23.90;61.12;97538.97;587751;241;66497;-67
2022/11/09 00:51:36;;;;;;;;;;;;;;;23.88;60.98;97530.39;587715;241;66642;-68
2022/11/09 00:54:04;;;;;;;;;;;;;;;23.87;61.02;97529.59;587726;241;65047;-68
2022/11/09 00:56:31;;;;;;;;;;;;;;;23.87;60.72;97531.45;587733;241;68637;-68
2022/11/09 00:58:59;;;;;;;;;;;;;;;23.86;60.83;97525.28;587702;241;68752;-67
2022/11/09 01:01:26;;;;;;;;;;;;;;;23.87;60.96;97528.77;587757;241;63030;-67
2022/11/09 01:03:54;;;;;;;;;;;;;;;23.86;60.88;97521.80;587737;241;66678;-67
2022/11/09 01:06:23;;;;;;;;;;;;;;;23.86;61.06;97529.85;587746;241;68670;-68
2022/11/09 01:08:51;;;;;;;;;;;;;;;23.86;60.77;97527.17;587732;241;65229;-67
2022/11/09 01:11:19;;;;;;;;;;;;;;;23.86;61.02;97521.80;587720;241;68610;-68
2022/11/09 01:13:47;;;;;;;;;;;;;;;23.86;60.53;97529.85;587758;241;66958;-68
2022/11/09 01:16:16;;;;;;;;;;;;;;;23.85;60.32;97525.58;587727;241;65340;-68
2022/11/09 01:18:43;;;;;;;;;;;;;;;23.84;60.67;97524.75;587738;241;66698;-68
2022/11/09 01:21:12;;;;;;;;;;;;;;;23.84;60.80;97529.31;587690;241;68889;-68
2022/11/09 01:23:41;;;;;;;;;;;;;;;23.83;61.16;97525.84;587744;241;65119;-68
2022/11/09 01:26:10;;;;;;;;;;;;;;;23.83;60.73;97523.16;587766;241;69851;-68
2022/11/09 01:28:38;;;;;;;;;;;;;;;23.83;61.11;97527.73;587700;241;68564;-68
2022/11/09 01:31:07;;;;;;;;;;;;;;;23.82;61.76;97521.56;587738;241;64873;-68
2022/11/09 01:33:35;;;;;;;;;;;;;;;23.82;61.05;97531.50;587714;241;68483;-68
2022/11/09 01:36:04;;;;;;;;;;;;;;;23.81;61.32;97522.63;587719;241;69424;-68
2022/11/09 01:38:32;;;;;;;;;;;;;;;23.81;61.46;97533.36;587726;241;62746;-68
2022/11/09 01:41:00;;;;;;;;;;;;;;;23.80;61.84;97531.77;587765;241;69104;-68
2022/11/09 01:43:28;;;;;;;;;;;;;;;23.80;61.33;97520.23;587731;241;68750;-68
2022/11/09 01:45:57;;;;;;;;;;;;;;;23.79;61.00;97518.61;587731;241;65036;-69
2022/11/09 01:48:32;;;;;;;;;;;;;;;23.79;60.86;97522.12;586230;241;69538;-68
2022/11/09 01:51:01;;;;;;;;;;;;;;;23.79;61.01;97521.30;587727;241;67402;-68
2022/11/09 01:53:30;;;;;;;;;;;;;;;23.78;62.04;97519.70;587790;241;63639;-69
2022/11/09 01:55:59;;;;;;;;;;;;;;;23.78;62.15;97527.75;587637;241;66875;-68
2022/11/09 01:58:34;;;;;;;;;;;;;;;23.76;60.72;97528.02;587692;241;70409;-68
2022/11/09 02:01:02;;;;;;;;;;;;;;;23.77;61.06;97528.84;587556;241;64879;-68
2022/11/09 02:03:32;;;;;;;;;;;;;;;23.76;61.35;97525.33;587693;241;68529;-68
2022/11/09 02:06:01;;;;;;;;;;;;;;;23.76;61.36;97530.70;587710;241;73905;-67
2022/11/09 02:08:28;;;;;;;;;;;;;;;23.74;60.75;97535.56;587793;241;65098;-68
2022/11/09 02:11:04;;;;;;;;;;;;;;;23.74;61.58;97527.51;587768;241;69334;-68
2022/11/09 02:13:32;;;;;;;;;;;;;;;23.73;60.42;97530.45;587745;241;69091;-67
2022/11/09 02:16:02;;;;;;;;;;;;;;;23.73;60.83;97533.94;587770;241;42397;-68
2022/11/09 02:18:30;;;;;;;;;;;;;;;23.74;60.59;97534.77;587722;241;68339;-68
2022/11/09 02:20:58;;;;;;;;;;;;;;;23.73;60.74;97535.82;587766;241;68415;-68
2022/11/09 02:23:26;;;;;;;;;;;;;;;23.72;61.41;97537.70;587742;241;62954;-68
2022/11/09 02:25:58;;;;;;;;;;;;;;;23.72;60.75;97532.34;587721;241;68691;-68
2022/11/09 02:28:26;;;;;;;;;;;;;;;23.72;61.26;97532.34;587686;241;67582;-68
2022/11/09 02:30:55;;;;;;;;;;;;;;;23.72;60.65;97537.70;587726;241;65091;-68
2022/11/09 02:33:23;;;;;;;;;;;;;;;23.72;61.59;97542.28;587729;241;66193;-68
2022/11/09 02:35:51;;;;;;;;;;;;;;;23.72;60.65;97544.96;587758;241;69078;-68
2022/11/09 02:38:19;;;;;;;;;;;;;;;23.70;60.88;97543.31;587686;241;66043;-68
2022/11/09 02:40:48;;;;;;;;;;;;;;;23.70;61.60;97543.31;587723;241;66181;-68
2022/11/09 02:43:16;;;;;;;;;;;;;;;23.69;61.27;97544.40;587715;241;68759;-68
2022/11/09 02:45:44;;;;;;;;;;;;;;;23.69;60.78;97539.03;587758;241;62513;-67
2022/11/09 02:48:11;;;;;;;;;;;;;;;23.68;60.01;97540.12;587772;241;66412;-68
2022/11/09 02:50:39;;;;;;;;;;;;;;;23.68;60.98;97542.80;587678;241;68724;-68
2022/11/09 02:53:06;;;;;;;;;;;;;;;23.68;60.59;97545.48;587699;241;64966;-67
2022/11/09 02:55:36;;;;;;;;;;;;;;;23.68;59.65;97542.80;587712;241;69760;-68
2022/11/09 02:58:03;;;;;;;;;;;;;;;23.67;60.70;97540.38;587707;241;67299;-68
2022/11/09 03:00:31;;;;;;;;;;;;;;;23.68;61.07;97547.34;587764;241;65756;-68
2022/11/09 03:03:00;;;;;;;;;;;;;;;23.67;61.60;97546.55;587673;241;69409;-68
2022/11/09 03:05:27;;;;;;;;;;;;;;;23.66;60.47;97550.32;587711;241;66608;-68
2022/11/09 03:07:56;;;;;;;;;;;;;;;23.66;60.29;97547.63;587728;241;65122;-68
2022/11/09 03:10:23;;;;;;;;;;;;;;;23.65;61.39;97546.05;587727;241;68868;-68
2022/11/09 03:12:51;;;;;;;;;;;;;;;23.65;60.99;97548.72;587752;241;68734;-68
2022/11/09 03:15:18;;;;;;;;;;;;;;;23.64;61.99;97548.98;587704;241;62898;-68
2022/11/09 03:17:46;;;;;;;;;;;;;;;23.63;61.01;97542.82;587669;241;68714;-67
2022/11/09 03:20:14;;;;;;;;;;;;;;;23.63;61.31;97548.19;587690;241;66198;-68
2022/11/09 03:22:42;;;;;;;;;;;;;;;23.63;61.31;97550.88;587720;241;65779;-67
2022/11/09 03:25:09;;;;;;;;;;;;;;;23.62;60.90;97549.25;587725;241;68708;-68
2022/11/09 03:27:37;;;;;;;;;;;;;;;23.61;61.27;97547.66;587759;241;68528;-68
2022/11/09 03:30:05;;;;;;;;;;;;;;;23.61;61.95;97542.29;587691;241;63743;-68
2022/11/09 03:32:32;;;;;;;;;;;;;;;23.61;61.69;97544.97;587734;241;68808;-68
2022/11/09 03:35:00;;;;;;;;;;;;;;;23.59;61.82;97547.12;587750;241;65975;-68
2022/11/09 03:37:28;;;;;;;;;;;;;;;23.59;61.43;97544.44;587730;241;63565;-68
2022/11/09 03:39:55;;;;;;;;;;;;;;;23.59;61.86;97543.64;587797;241;67546;-68
2022/11/09 03:42:23;;;;;;;;;;;;;;;23.59;62.14;97549.00;587710;241;66907;-68
2022/11/09 03:44:50;;;;;;;;;;;;;;;23.58;62.00;97547.41;587710;241;65093;-68
2022/11/09 03:47:18;;;;;;;;;;;;;;;23.57;62.14;97546.61;587762;241;69595;-68
2022/11/09 03:49:45;;;;;;;;;;;;;;;23.57;60.79;97546.61;587721;241;66658;-68
2022/11/09 03:52:13;;;;;;;;;;;;;;;23.56;60.76;97547.67;587811;241;62871;-68
2022/11/09 03:54:40;;;;;;;;;;;;;;;23.56;61.56;97550.35;587747;241;66845;-68
2022/11/09 03:57:09;;;;;;;;;;;;;;;23.57;61.72;97543.93;587749;241;68598;-68
2022/11/09 03:59:36;;;;;;;;;;;;;;;23.56;62.47;97541.51;587720;241;65049;-68
2022/11/09 04:02:04;;;;;;;;;;;;;;;23.54;61.43;97536.41;587171;241;68508;-68
2022/11/09 04:04:31;;;;;;;;;;;;;;;23.55;62.17;97534.55;585905;242;68813;-68
2022/11/09 04:06:59;;;;;;;;;;;;;;;23.55;62.04;97542.59;585841;242;65129;-68
2022/11/09 04:09:27;;;;;;;;;;;;;;;23.53;61.37;97542.86;585858;242;68909;-68
2022/11/09 04:11:54;;;;;;;;;;;;;;;23.53;61.78;97540.17;585842;242;68678;-68
2022/11/09 04:14:22;;;;;;;;;;;;;;;23.53;61.27;97542.86;585861;242;65057;-68
2022/11/09 04:16:49;;;;;;;;;;;;;;;23.53;62.26;97539.37;585905;242;66633;-68
2022/11/09 04:19:17;;;;;;;;;;;;;;;23.53;62.29;97540.17;585903;242;66618;-68
2022/11/09 04:21:44;;;;;;;;;;;;;;;23.52;61.61;97538.58;585862;242;62677;-68
2022/11/09 04:24:12;;;;;;;;;;;;;;;23.50;62.81;97535.36;585883;242;66459;-68
2022/11/09 04:26:39;;;;;;;;;;;;;;;23.51;62.68;97536.16;585821;242;66630;-68
2022/11/09 04:29:07;;;;;;;;;;;;;;;23.49;62.06;97544.50;585828;242;62947;-68
2022/11/09 04:31:34;;;;;;;;;;;;;;;23.51;62.56;97557.62;585887;242;66684;-68
2022/11/09 04:34:02;;;;;;;;;;;;;;;23.50;62.94;97546.09;585855;242;69256;-68
2022/11/09 04:36:29;;;;;;;;;;;;;;;23.49;61.63;97547.19;585872;242;64880;-68
2022/11/09 04:38:57;;;;;;;;;;;;;;;23.49;61.78;97552.55;585846;242;66427;-68
2022/11/09 04:41:24;;;;;;;;;;;;;;;23.48;62.08;97549.03;585856;242;66596;-68
2022/11/09 04:43:52;;;;;;;;;;;;;;;23.48;62.16;97546.35;585904;242;62926;-68
2022/11/09 04:46:19;;;;;;;;;;;;;;;23.48;63.59;97550.92;585850;242;68862;-68
2022/11/09 04:48:46;;;;;;;;;;;;;;;23.46;61.91;97547.70;585863;242;68485;-68
2022/11/09 04:51:14;;;;;;;;;;;;;;;23.46;62.34;97548.53;585877;242;64883;-68
2022/11/09 04:53:41;;;;;;;;;;;;;;;23.45;61.54;97552.27;585821;242;68633;-67
2022/11/09 04:56:09;;;;;;;;;;;;;;;23.46;62.79;97555.75;585862;242;68971;-68
2022/11/09 04:58:37;;;;;;;;;;;;;;;23.44;62.13;97556.04;585870;242;65085;-68
2022/11/09 05:01:07;;;;;;;;;;;;;;;23.44;61.91;97553.36;585817;242;69485;-68
2022/11/09 05:03:35;;;;;;;;;;;;;;;23.44;63.38;97552.56;585806;241;67379;-68
2022/11/09 05:08:49;;;;;;;;;;;;;;;23.43;62.12;97557.09;585845;242;69051;-67
2022/11/09 05:11:17;;;;;;;;;;;;;;;23.43;62.61;97559.78;585865;242;68572;-68
2022/11/09 05:13:44;;;;;;;;;;;;;;;23.42;62.83;97560.07;585869;242;65124;-68
2022/11/09 05:16:12;;;;;;;;;;;;;;;23.41;62.59;97561.16;585841;242;69160;-67
2022/11/09 05:18:39;;;;;;;;;;;;;;;23.41;62.07;97561.95;585825;242;66471;-68
2022/11/09 05:21:07;;;;;;;;;;;;;;;23.40;62.16;97570.27;585724;242;65221;-68
2022/11/09 05:26:20;;;;;;;;;;;;;;;23.40;62.96;97570.27;585884;242;66824;-68
2022/11/09 05:28:47;;;;;;;;;;;;;;;23.39;62.47;97568.67;585835;242;63312;-68
2022/11/09 05:31:15;;;;;;;;;;;;;;;23.39;61.98;97569.47;585818;242;66622;-69
2022/11/09 05:33:42;;;;;;;;;;;;;;;23.38;61.60;97578.59;585835;242;66594;-68
2022/11/09 05:36:10;;;;;;;;;;;;;;;23.37;62.12;97579.66;585855;242;62755;-68
2022/11/09 05:38:37;;;;;;;;;;;;;;;23.38;61.65;97580.45;585943;242;66464;-68
2022/11/09 05:41:05;;;;;;;;;;;;;;;23.38;61.83;97588.50;585851;242;68385;-68
2022/11/09 05:43:32;;;;;;;;;;;;;;;23.37;62.02;97589.58;585833;242;65131;-68
2022/11/09 05:46:00;;;;;;;;;;;;;;;23.38;62.81;97588.50;585830;242;68862;-68
2022/11/09 05:48:27;;;;;;;;;;;;;;;23.39;64.22;97595.48;585838;242;68499;-68
2022/11/09 05:50:55;;;;;;;;;;;;;;;23.37;62.36;97593.06;585896;242;65036;-68
2022/11/09 05:53:24;;;;;;;;;;;;;;;23.38;61.89;97601.91;585785;242;45750;-68
2022/11/09 05:55:51;;;;;;;;;;;;;;;23.38;62.58;97597.38;585831;242;66617;-68
2022/11/09 05:58:23;;;;;;;;;;;;;;;23.38;62.86;97602.73;585792;242;62771;-69
2022/11/09 06:01:06;;;;;;;;;;;;;;;23.37;63.62;97603.00;585733;242;49882;-68
2022/11/09 06:03:39;;;;;;;;;;;;;;;23.38;62.76;97609.95;586175;240;49209;-68
2022/11/09 06:06:16;;;;;;;;;;;;;;;23.38;62.43;97609.95;585887;242;45141;-68
2022/11/09 06:08:49;;;;;;;;;;;;;;;23.37;62.15;97608.36;584637;242;49462;-68
2022/11/09 06:11:27;;;;;;;;;;;;;;;23.37;62.38;97606.48;585608;242;49964;-68
2022/11/09 06:14:02;;;;;;;;;;;;;;;23.38;62.56;97605.42;586141;239;46381;-68
2022/11/09 06:16:31;;;;;;;;;;;;;;;23.37;61.83;97611.04;585874;240;49530;-68
2022/11/09 06:18:58;;;;;;;;;;;;;;;23.38;62.17;97602.73;585813;242;68435;-68
2022/11/09 06:21:26;;;;;;;;;;;;;;;23.38;61.97;97609.95;585866;242;65027;-68
2022/11/09 06:23:53;;;;;;;;;;;;;;;23.40;62.03;97607.81;585456;241;68456;-68
2022/11/09 06:26:21;;;;;;;;;;;;;;;23.40;62.24;97611.30;586913;240;68747;-69
2022/11/09 06:28:48;;;;;;;;;;;;;;;23.41;62.05;97606.75;587725;241;65351;-70
2022/11/09 06:31:17;;;;;;;;;;;;;;;23.41;61.45;97609.44;587770;241;68544;-71
2022/11/09 06:33:44;;;;;;;;;;;;;;;23.41;61.44;97614.80;587710;241;66697;-70
2022/11/09 06:36:12;;;;;;;;;;;;;;;23.42;62.37;97613.72;587704;241;62939;-70
2022/11/09 06:38:39;;;;;;;;;;;;;;;23.43;61.94;97612.62;587744;241;66489;-71
2022/11/09 06:41:08;;;;;;;;;;;;;;;23.42;61.54;97614.52;587679;241;68668;-69
2022/11/09 06:43:36;;;;;;;;;;;;;;;23.43;60.65;97609.95;587737;241;62720;-69
2022/11/09 06:46:04;;;;;;;;;;;;;;;23.43;60.98;97612.62;587728;241;66537;-69
2022/11/09 06:48:31;;;;;;;;;;;;;;;23.44;61.33;97606.20;587706;241;68816;-70
2022/11/09 06:51:00;;;;;;;;;;;;;;;23.43;60.29;97615.31;584939;241;63014;-70
2022/11/09 06:53:29;;;;;;;;;;;;;;;23.44;61.39;97614.25;587509;240;68830;-70
2022/11/09 06:56:00;;;;;;;;;;;;;;;23.45;60.88;97613.97;587696;241;69526;-70
2022/11/09 06:58:28;;;;;;;;;;;;;;;23.43;61.78;97616.11;587162;241;65056;-70
2022/11/09 07:00:55;;;;;;;;;;;;;;;23.45;60.84;97613.17;587665;241;68662;-69
2022/11/09 07:03:23;;;;;;;;;;;;;;;23.45;61.20;97613.17;589979;240;66605;-68
2022/11/09 07:05:52;;;;;;;;;;;;;;;23.45;61.02;97607.80;591223;240;65247;-68
2022/11/09 07:08:19;;;;;;;;;;;;;;;23.45;61.86;97613.97;591261;240;69057;-68
2022/11/09 07:10:47;;;;;;;;;;;;;;;23.45;58.63;97610.48;591429;240;69749;-67
2022/11/09 07:13:15;;;;;;;;;;;;;;;23.46;60.11;97609.40;591334;240;65040;-68
2022/11/09 07:15:42;;;;;;;;;;;;;;;23.46;59.80;97604.03;591277;240;68765;-67
2022/11/09 07:18:12;;;;;;;;;;;;;;;23.46;60.00;97595.98;591438;240;66396;-69
2022/11/09 07:20:39;;;;;;;;;;;;;;;23.45;59.77;97600.55;591405;240;65088;-68
2022/11/09 07:23:07;;;;;;;;;;;;;;;23.47;59.31;97600.30;591434;240;66593;-68
2022/11/09 07:25:34;;;;;;;;;;;;;;;23.48;59.33;97593.84;591393;240;69029;-68
2022/11/09 07:28:04;;;;;;;;;;;;;;;23.48;61.15;97594.64;591374;240;62962;-68
2022/11/09 07:30:31;;;;;;;;;;;;;;;23.49;63.78;97596.27;591085;240;66616;-69
2022/11/09 07:32:59;;;;;;;;;;;;;;;23.47;59.82;97595.73;590150;240;66484;-70
2022/11/09 07:35:26;;;;;;;;;;;;;;;23.48;59.94;97591.16;590081;240;65043;-72
2022/11/09 07:37:54;;;;;;;;;;;;;;;23.48;58.67;97594.64;590189;240;66696;-69
2022/11/09 07:40:24;;;;;;;;;;;;;;;23.52;62.20;97597.59;590098;240;66461;-71
2022/11/09 07:42:51;;;;;;;;;;;;;;;23.55;61.40;97594.37;590094;240;62557;-69
2022/11/09 07:45:18;;;;;;;;;;;;;;;23.56;59.38;97593.28;590156;240;66329;-70
2022/11/09 07:47:46;;;;;;;;;;;;;;;23.59;58.62;97595.41;590107;240;66456;-70
2022/11/09 07:50:13;;;;;;;;;;;;;;;23.62;59.25;97602.11;590093;240;61913;-70
2022/11/09 07:52:41;;;;;;;;;;;;;;;23.62;59.51;97597.55;590120;240;66709;-69
2022/11/09 07:55:08;;;;;;;;;;;;;;;23.64;59.86;97597.28;590101;240;68390;-69
2022/11/09 07:57:36;;;;;;;;;;;;;;;23.64;61.05;97605.33;590077;240;64913;-70
2022/11/09 08:00:04;;;;;;;;;;;;;;;23.65;63.49;97593.52;590060;240;68674;-69
2022/11/09 08:02:33;;;;;;;;;;;;;;;23.65;63.88;97601.56;589911;240;47128;-70
2022/11/09 08:05:00;;;;;;;;;;;;;;;23.64;63.80;97602.65;590126;240;62908;-69
2022/11/09 08:07:28;;;;;;;;;;;;;;;23.63;60.96;97603.73;590100;240;66466;-70
2022/11/09 08:09:55;;;;;;;;;;;;;;;23.64;59.64;97597.28;590069;240;66644;-70
2022/11/09 08:12:23;;;;;;;;;;;;;;;23.65;61.56;97602.39;590125;240;62742;-71
2022/11/09 08:14:51;;;;;;;;;;;;;;;23.61;59.51;97592.47;590138;240;66590;-71
2022/11/09 08:17:18;;;;;;;;;;;;;;;23.60;60.04;97591.67;590098;240;68353;-70
2022/11/09 08:19:46;;;;;;;;;;;;;;;23.62;60.63;97594.86;590083;240;64906;-70
2022/11/09 08:22:14;;;;;;;;;;;;;;;23.60;59.47;97588.16;590102;240;68896;-69
2022/11/09 08:24:41;;;;;;;;;;;;;;;23.61;58.44;97595.16;590080;240;66501;-69
2022/11/09 08:27:09;;;;;;;;;;;;;;;23.61;59.29;97584.42;590137;240;62769;-68
2022/11/09 08:29:36;;;;;;;;;;;;;;;23.62;59.43;97586.81;590167;240;66440;-69
2022/11/09 08:32:04;;;;;;;;;;;;;;;23.61;59.50;97582.53;590094;240;68412;-68
2022/11/09 08:34:31;;;;;;;;;;;;;;;23.62;58.22;97581.44;590092;240;64883;-68
2022/11/09 08:37:01;;;;;;;;;;;;;;;23.63;59.25;97583.06;590126;240;68856;-70
2022/11/09 08:39:29;;;;;;;;;;;;;;;23.63;59.24;97587.64;590034;240;69085;-67
2022/11/09 08:41:57;;;;;;;;;;;;;;;23.64;58.51;97583.87;590177;240;65109;-67
2022/11/09 08:44:24;;;;;;;;;;;;;;;23.63;58.59;97583.06;590143;240;66696;-67
2022/11/09 08:46:52;;;;;;;;;;;;;;;23.63;57.93;97583.06;590046;240;66600;-67
2022/11/09 08:49:19;;;;;;;;;;;;;;;23.63;58.99;97583.06;590160;240;62936;-69
2022/11/09 08:51:47;;;;;;;;;;;;;;;23.64;59.41;97581.98;590091;240;66541;-69
2022/11/09 08:54:16;;;;;;;;;;;;;;;23.63;57.64;97583.06;590120;240;68635;-68
2022/11/09 08:56:45;;;;;;;;;;;;;;;23.64;57.92;97590.03;590155;240;65030;-70
2022/11/09 08:59:12;;;;;;;;;;;;;;;23.65;58.48;97585.46;590029;240;68349;-70
2022/11/09 09:01:40;;;;;;;;;;;;;;;23.64;57.74;97584.66;590057;240;68738;-70
2022/11/09 09:04:07;;;;;;;;;;;;;;;23.64;59.10;97584.66;590094;240;63125;-70
2022/11/09 09:06:35;;;;;;;;;;;;;;;23.65;57.72;97590.83;590119;240;66934;-70
2022/11/09 09:09:02;;;;;;;;;;;;;;;23.65;58.31;97586.29;590157;240;66638;-69
2022/11/09 09:11:30;;;;;;;;;;;;;;;23.64;58.16;97584.66;590097;240;65045;-70
2022/11/09 09:13:57;;;;;;;;;;;;;;;23.65;58.86;97577.41;590027;240;68829;-70
2022/11/09 09:16:25;;;;;;;;;;;;;;;23.64;57.22;97573.13;590110;240;68737;-71
2022/11/09 09:18:53;;;;;;;;;;;;;;;23.66;61.51;97576.36;590114;240;65069;-71
2022/11/09 09:21:20;;;;;;;;;;;;;;;23.68;61.14;97569.64;590091;240;68973;-71
2022/11/09 09:23:48;;;;;;;;;;;;;;;23.70;60.94;97572.83;590069;240;68746;-70
2022/11/09 09:26:16;;;;;;;;;;;;;;;23.74;60.15;97566.97;590097;240;65083;-71
2022/11/09 09:28:44;;;;;;;;;;;;;;;23.77;60.85;97561.05;589959;240;68876;-69
2022/11/09 09:31:11;;;;;;;;;;;;;;;23.79;59.36;97564.23;590126;240;68728;-70
2022/11/09 09:33:39;;;;;;;;;;;;;;;23.80;61.15;97561.28;590131;240;64913;-71
2022/11/09 09:36:07;;;;;;;;;;;;;;;23.83;60.65;97559.94;590068;240;68797;-70
2022/11/09 09:38:34;;;;;;;;;;;;;;;23.80;56.97;97555.13;590127;240;66767;-70
2022/11/09 09:41:03;;;;;;;;;;;;;;;23.82;60.57;97552.97;590132;240;63900;-73
2022/11/09 09:43:32;;;;;;;;;;;;;;;23.83;62.21;97554.56;590056;240;66590;-68
2022/11/09 09:46:01;;;;;;;;;;;;;;;23.84;63.01;97550.79;590191;240;66047;-69
2022/11/09 09:48:33;;;;;;;;;;;;;;;23.83;63.46;97549.20;590125;240;65376;-69
2022/11/09 09:51:02;;;;;;;;;;;;;;;23.83;62.85;97543.83;590090;240;66848;-69
2022/11/09 09:53:31;;;;;;;;;;;;;;;23.83;62.51;97539.26;589965;240;66947;-69
2022/11/09 09:56:12;;;;;;;;;;;;;;;23.83;63.12;97541.15;589934;240;65051;-68
2022/11/09 09:58:41;;;;;;;;;;;;;;;23.83;63.22;97538.46;590046;240;68839;-69
2022/11/09 10:01:16;;;;;;;;;;;;;;;23.82;62.91;97540.34;589906;240;68683;-69
2022/11/09 10:03:44;;;;;;;;;;;;;;;23.84;61.43;97534.69;587167;240;65079;-68
2022/11/09 10:06:13;;;;;;;;;;;;;;;23.84;62.39;97529.31;586321;242;68818;-70
2022/11/09 10:08:42;;;;;;;;;;;;;;;23.84;62.03;97535.48;586066;242;66470;-68
2022/11/09 10:11:11;;;;;;;;;;;;;;;23.84;61.11;97534.69;586367;242;63014;-69
2022/11/09 10:13:40;;;;;;;;;;;;;;;23.85;62.20;97525.58;586322;242;66056;-70
2022/11/09 10:16:12;;;;;;;;;;;;;;;23.85;60.60;97522.89;585365;242;66287;-69
2022/11/09 10:18:56;;;;;;;;;;;;;;;23.86;60.56;97521.80;586138;242;65071;-69
2022/11/09 10:21:42;;;;;;;;;;;;;;;23.87;61.92;97520.71;586360;242;68897;-69
2022/11/09 10:24:20;;;;;;;;;;;;;;;23.86;60.87;97517.23;586375;242;68464;-71
2022/11/09 10:26:57;;;;;;;;;;;;;;;23.87;60.38;97520.71;586205;242;63086;-69
2022/11/09 10:29:29;;;;;;;;;;;;;;;23.87;60.57;97518.85;586373;242;66461;-72
2022/11/09 10:31:58;;;;;;;;;;;;;;;23.88;61.34;97515.08;586322;242;66394;-74
2022/11/09 10:34:45;;;;;;;;;;;;;;;23.91;60.48;97513.72;586142;242;62948;-71
2022/11/09 10:37:12;;;;;;;;;;;;;;;;;;566795;247;68885;-67
2022/11/09 10:39:43;;;;;;;;;;;;;;;23.91;60.89;97513.72;566755;250;68761;-68
2022/11/09 10:42:28;;;;;;;;;;;;;;;;;;576588;242;39147;-73
2022/11/09 10:45:18;;;;;;;;;;;;;;;23.89;60.54;97505.14;586486;242;39469;-73
2022/11/09 10:48:05;;;;;;;;;;;;;;;23.89;60.81;97505.94;583879;242;40357;-77
2022/11/09 10:50:51;;;;;;;;;;;;;;;23.88;60.93;97498.97;586480;242;39709;-72
2022/11/09 10:53:37;;;;;;;;;;;;;;;23.90;61.37;97493.34;586384;242;40316;-72
2022/11/09 10:56:22;;;;;;;;;;;;;;;23.89;60.36;97495.20;586454;242;43261;-66
2022/11/09 10:59:26;;;;;;;;;;;;;;;23.89;60.31;97495.20;586387;242;39755;-67
2022/11/09 11:02:26;;;;;;;;;;;;;;;23.89;61.00;97497.09;586844;240;44620;-69
2022/11/09 11:05:19;;;;;;;;;;;;;;;23.88;60.48;97487.44;590285;240;40171;-77
2022/11/09 11:08:22;;;;;;;;;;;;;;;23.88;59.93;97487.44;590247;240;39520;-71
2022/11/09 11:11:24;;;;;;;;;;;;;;;23.88;59.93;97480.19;590289;240;44760;-72
2022/11/09 11:14:14;;;;;;;;;;;;;;;23.89;59.73;97489.83;590316;240;44943;-72
2022/11/09 11:17:00;;;;;;;;;;;;;;;23.87;59.21;97483.95;590204;240;39166;-73
2022/11/09 11:19:46;;;;;;;;;;;;;;;23.90;59.03;97479.92;590214;240;41870;-70
2022/11/09 11:22:31;;;;;;;;;;;;;;;23.89;60.44;97476.41;590141;240;40331;-70
2022/11/09 11:25:19;;;;;;;;;;;;;;;23.90;59.73;97477.23;589876;240;41327;-71
2022/11/09 11:28:06;;;;;;;;;;;;;;;23.89;58.64;97481.78;589424;240;40490;-70
2022/11/09 11:30:51;;;;;;;;;;;;;;;;;;590178;240;40515;-72
2022/11/09 11:33:36;;;;;;;;;;;;;;;23.91;60.46;97470.77;590245;240;39208;-72
2022/11/09 11:36:36;;;;;;;;;;;;;;;23.91;59.83;97470.77;590189;240;40149;-73
2022/11/09 11:39:25;;;;;;;;;;;;;;;23.91;61.36;97468.09;590226;240;40319;-72
2022/11/09 11:42:22;;;;;;;;;;;;;;;23.91;60.88;97468.09;590198;240;39485;-68
2022/11/09 11:45:31;;;;;;;;;;;;;;;23.91;59.55;97465.41;590207;240;39557;-71
2022/11/09 11:48:32;;;;;;;;;;;;;;;23.91;61.24;97470.77;590183;240;44478;-71
2022/11/09 11:51:20;;;;;;;;;;;;;;;23.90;59.65;97458.45;590184;240;41162;-71
2022/11/09 11:54:06;;;;;;;;;;;;;;;23.93;60.55;97461.36;590214;240;40395;-70
2022/11/09 11:56:54;;;;;;;;;;;;;;;23.94;58.97;97454.11;590217;240;40400;-71
2022/11/09 11:59:44;;;;;;;;;;;;;;;23.96;59.82;97460.01;590103;240;39158;-70
2022/11/09 12:02:43;;;;;;;;;;;;;;;23.98;60.96;97460.53;590224;240;44981;-72
2022/11/09 12:05:40;;;;;;;;;;;;;;;24.00;62.18;97463.72;590142;240;44500;-72
2022/11/09 12:08:36;;;;;;;;;;;;;;;23.98;61.65;97455.16;590226;240;41088;-73
2022/11/09 12:11:40;;;;;;;;;;;;;;;23.96;61.06;97451.95;590164;240;40430;-75
2022/11/09 12:14:45;;;;;;;;;;;;;;;23.95;60.76;97458.38;590153;240;40398;-74
2022/11/09 12:17:36;;;;;;;;;;;;;;;23.93;61.45;97464.05;590165;240;39073;-74
2022/11/09 12:20:26;;;;;;;;;;;;;;;23.93;62.45;97449.83;590178;240;40404;-73
2022/11/09 12:23:14;;;;;;;;;;;;;;;23.90;61.39;97447.70;590190;240;40382;-73
2022/11/09 12:26:07;;;;;;;;;;;;;;;23.91;61.55;97450.09;590189;240;39988;-72
2022/11/09 12:29:00;;;;;;;;;;;;;;;23.89;60.74;97446.88;590150;240;44720;-71
2022/11/09 12:31:54;;;;;;;;;;;;;;;23.88;60.69;97441.81;589331;240;40206;-71
2022/11/09 12:34:55;;;;;;;;;;;;;;;23.90;60.15;97447.70;590108;240;39637;-69
2022/11/09 12:37:39;;;;;;;;;;;;;;;23.89;60.56;97444.20;590186;240;44545;-70
2022/11/09 12:40:29;;;;;;;;;;;;;;;23.90;59.56;97442.34;590045;240;44805;-70
2022/11/09 12:43:31;;;;;;;;;;;;;;;23.90;59.28;97442.34;590242;240;39759;-69
2022/11/09 12:46:18;;;;;;;;;;;;;;;23.90;59.69;97445.02;590271;240;39550;-71
2022/11/09 12:49:05;;;;;;;;;;;;;;;23.88;60.61;97439.13;590205;240;41928;-68
2022/11/09 12:51:51;;;;;;;;;;;;;;;23.86;59.38;97431.34;590191;240;39033;-70
2022/11/09 12:54:38;;;;;;;;;;;;;;;23.86;61.01;97438.59;590153;240;44639;-69
2022/11/09 12:57:25;;;;;;;;;;;;;;;23.83;59.11;97431.11;590186;240;40491;-71
2022/11/09 13:00:12;;;;;;;;;;;;;;;23.83;59.49;97434.58;590138;240;41159;-70
2022/11/09 13:02:59;;;;;;;;;;;;;;;23.83;58.88;97431.11;590095;240;44331;-68
2022/11/09 13:05:46;;;;;;;;;;;;;;;23.82;59.39;97430.31;590153;240;40315;-72
2022/11/09 13:08:32;;;;;;;;;;;;;;;23.81;59.20;97433.26;590130;240;40534;-71
2022/11/09 13:11:19;;;;;;;;;;;;;;;23.82;58.48;97434.88;590175;240;45017;-68
2022/11/09 13:14:27;;;;;;;;;;;;;;;23.77;54.04;97410.77;590202;240;41947;-71
2022/11/09 13:17:30;;;;;;;;;;;;;;;23.79;58.65;97428.19;590178;240;39849;-71
2022/11/09 13:20:34;;;;;;;;;;;;;;;23.80;59.85;97429.78;590186;240;40420;-72
2022/11/09 13:23:32;;;;;;;;;;;;;;;23.81;59.82;97433.26;590096;240;40408;-69